Time;durP1;ratioP1;P1;durP2;ratioP2;P2;SDS_P1;SDS_P2;PMS_P1;PMS_P2;Temp;Humidity;BMP_temperature;BMP_pressure;BME280_temperature;BME280_humidity;BME280_pressure;Samples;Min_cycle;Max_cycle;Signal;HPM_P1;HPM_P2
2022/03/16 00:01:43;;;;;;;3.50;2.37;;;;;;;-2.15;60.92;101886.25;31490446;28;20064;-77
2022/03/16 00:16:46;;;;;;;2.70;2.13;;;;;;;-2.27;62.26;101880.56;31486287;28;20516;-77
2022/03/16 00:31:51;;;;;;;2.97;1.80;;;;;;;-2.26;63.10;101863.53;31497043;28;20087;-79
2022/03/16 00:46:53;;;;;;;5.33;2.20;;;;;;;-2.44;64.12;101849.16;31481075;28;20062;-77
2022/03/16 01:01:55;;;;;;;4.23;2.43;;;;;;;-2.57;64.20;101866.59;31494675;28;20061;-80
2022/03/16 01:16:57;;;;;;;4.10;2.60;;;;;;;-2.65;65.70;101861.94;31485074;28;20071;-76
2022/03/16 01:32:00;;;;;;;7.93;2.70;;;;;;;-2.77;65.39;101842.97;31485426;28;20053;-78
2022/03/16 01:47:02;;;;;;;3.30;2.03;;;;;;;-2.72;65.96;101853.53;31490369;28;20041;-77
2022/03/16 02:02:07;;;;;;;4.17;2.27;;;;;;;-2.90;65.77;101843.69;31485295;28;20053;-76
2022/03/16 02:17:10;;;;;;;3.10;2.20;;;;;;;-3.16;65.87;101856.47;31486558;28;20485;-79
2022/03/16 02:32:12;;;;;;;3.67;2.50;;;;;;;-3.11;65.73;101854.56;31494865;28;20084;-77
2022/03/16 02:47:14;;;;;;;2.47;2.27;;;;;;;-3.08;65.66;101857.72;31506790;28;20141;-78
2022/03/16 03:02:16;;;;;;;3.23;2.30;;;;;;;-3.16;65.70;101857.25;31493012;28;20059;-77
2022/03/16 03:17:19;;;;;;;5.77;3.07;;;;;;;-3.29;67.08;101847.31;31506165;28;20082;-77
2022/03/16 03:32:21;;;;;;;3.90;2.93;;;;;;;-3.50;68.93;101846.72;31496074;28;20049;-76
2022/03/16 03:47:24;;;;;;;4.00;2.77;;;;;;;-3.54;70.75;101861.63;31498834;28;20151;-77
2022/03/16 04:02:26;;;;;;;9.93;4.33;;;;;;;-3.52;71.44;101866.66;31487622;28;20530;-77
2022/03/16 04:17:28;;;;;;;5.80;3.90;;;;;;;-3.55;72.32;101869.91;31489917;28;20135;-76
2022/03/16 04:32:30;;;;;;;5.47;3.00;;;;;;;-3.20;71.88;101876.69;31490133;28;20044;-78
2022/03/16 04:47:33;;;;;;;5.77;3.80;;;;;;;-2.90;70.16;101881.66;31490776;28;20045;-78
2022/03/16 05:02:36;;;;;;;13.47;4.87;;;;;;;-2.17;67.13;101880.44;31482608;28;20059;-77
2022/03/16 05:17:39;;;;;;;8.47;3.93;;;;;;;-1.59;66.84;101896.00;31471310;28;20098;-77
2022/03/16 05:32:42;;;;;;;7.10;4.27;;;;;;;-0.62;63.61;101906.41;31478343;28;20059;-78
2022/03/16 05:47:45;;;;;;;10.00;4.47;;;;;;;-0.38;62.00;101901.63;31487394;28;20497;-77
2022/03/16 06:02:49;;;;;;;7.20;3.47;;;;;;;0.92;56.54;101908.59;31476286;28;20052;-76
2022/03/16 06:17:55;;;;;;;5.00;3.63;;;;;;;2.47;51.29;101899.84;31513639;28;20090;-76
2022/03/16 06:32:58;;;;;;;5.63;3.30;;;;;;;3.36;46.64;101903.41;31506353;28;20040;-76
2022/03/16 06:48:02;;;;;;;3.40;2.60;;;;;;;3.19;46.51;101906.19;31483153;28;20068;-76
2022/03/16 07:03:08;;;;;;;4.80;2.90;;;;;;;2.96;45.63;101901.09;31481498;28;20538;-76
2022/03/16 07:18:10;;;;;;;4.45;2.40;;;;;;;1.73;48.27;101896.63;31488169;28;20059;-77
2022/03/16 07:33:13;;;;;;;6.57;1.87;;;;;;;1.76;47.78;101901.34;31481410;28;20048;-76
2022/03/16 07:48:15;;;;;;;3.67;2.17;;;;;;;2.65;46.94;101892.53;31476638;28;20080;-76
2022/03/16 08:03:19;;;;;;;3.07;1.77;;;;;;;2.21;44.25;101888.41;31420953;28;1404278;-74
2022/03/16 08:18:21;;;;;;;3.17;2.03;;;;;;;2.24;43.00;101877.03;31499362;28;20057;-77
2022/03/16 08:33:23;;;;;;;2.13;1.60;;;;;;;1.67;45.05;101883.38;31481833;28;20045;-74
2022/03/16 08:48:27;;;;;;;1.93;1.70;;;;;;;2.68;41.90;101881.16;31482434;28;20527;-73
2022/03/16 09:03:29;;;;;;;1.27;1.17;;;;;;;2.22;42.45;101882.72;31469102;28;20475;-83
2022/03/16 09:18:32;;;;;;;2.90;1.67;;;;;;;1.96;43.76;101881.97;31509478;28;20102;-75
2022/03/16 09:33:34;;;;;;;7.43;1.50;;;;;;;2.53;42.07;101870.97;31467260;28;20049;-79
2022/03/16 09:48:38;;;;;;;3.03;1.80;;;;;;;4.28;38.84;101869.13;31469047;28;20059;-81
2022/03/16 10:03:40;;;;;;;5.53;1.90;;;;;;;4.66;36.95;101846.56;31489085;28;20106;-84
2022/03/16 10:18:46;;;;;;;2.40;1.97;;;;;;;3.43;37.54;101841.94;31488812;28;20044;-84
2022/03/16 10:33:50;;;;;;;2.87;2.07;;;;;;;3.08;38.85;101828.72;31477307;28;20113;-79
2022/03/16 10:49:10;;;;;;;5.80;2.20;;;;;;;4.65;34.89;101800.06;31459369;28;20045;-83
2022/03/16 11:04:13;;;;;;;1.63;1.53;;;;;;;2.86;37.43;101810.25;31500143;28;20101;-79
2022/03/16 11:19:17;;;;;;;3.30;1.80;;;;;;;2.66;39.20;101794.91;31502855;28;20086;-71
2022/03/16 11:34:22;;;;;;;3.07;1.83;;;;;;;4.80;36.62;101780.53;31499084;28;20177;-75
2022/03/16 11:49:29;;;;;;;3.13;1.70;;;;;;;4.26;34.92;101779.94;31502785;28;20076;-74
2022/03/16 12:04:38;;;;;;;4.17;2.40;;;;;;;3.19;39.57;101769.31;31483490;28;20059;-75
2022/03/16 12:19:41;;;;;;;5.30;2.27;;;;;;;1.70;44.41;101790.94;31486503;28;20048;-75
2022/03/16 12:34:43;;;;;;;3.27;2.10;;;;;;;1.81;43.67;101796.75;31467299;28;20098;-78
2022/03/16 12:49:46;;;;;;;3.87;2.40;;;;;;;2.42;44.06;101774.03;31479709;28;20087;-74
2022/03/16 13:04:58;;;;;;;2.37;1.93;;;;;;;2.36;43.17;101776.09;31482866;28;20519;-74
2022/03/16 13:20:01;;;;;;;2.80;2.03;;;;;;;0.94;47.02;101779.94;31484021;28;20510;-84
2022/03/16 13:35:13;;;;;;;3.23;2.60;;;;;;;1.29;47.89;101783.41;31478076;28;20051;-78
2022/03/16 13:50:22;;;;;;;4.03;2.20;;;;;;;1.39;47.75;101783.09;31477650;28;20047;-78
2022/03/16 14:05:35;;;;;;;7.33;2.53;;;;;;;1.40;45.76;101775.88;31460792;28;20061;-77
2022/03/16 14:20:41;;;;;;;9.87;3.33;;;;;;;0.54;54.81;101795.22;31495210;28;20507;-79
2022/03/16 14:35:47;;;;;;;13.33;3.63;;;;;;;0.71;52.48;101797.94;31505487;28;20056;-75
2022/03/16 14:50:50;;;;;;;6.13;3.13;;;;;;;0.74;51.82;101813.34;31474150;28;20044;-81
2022/03/16 15:05:53;;;;;;;7.87;4.00;;;;;;;0.05;54.63;101834.41;31484845;28;20048;-74
2022/03/16 15:20:55;;;;;;;5.80;3.70;;;;;;;0.10;52.23;101826.28;31485057;28;20041;-82
2022/03/16 15:35:57;;;;;;;5.13;3.47;;;;;;;-0.07;52.43;101834.97;31461306;28;20049;-75
2022/03/16 15:50:59;;;;;;;5.77;3.43;;;;;;;-0.40;50.23;101844.28;31482445;28;20097;-75
2022/03/16 16:06:01;;;;;;;6.33;3.93;;;;;;;-0.49;51.26;101862.13;31494221;28;20419;-78
2022/03/16 16:21:10;;;;;;;9.23;3.93;;;;;;;-0.50;51.80;101871.22;31483695;28;20055;-78
2022/03/16 16:36:15;;;;;;;7.13;3.90;;;;;;;-0.95;54.44;101886.31;31470939;28;20060;-72
2022/03/16 16:51:19;;;;;;;8.80;4.07;;;;;;;-0.93;55.49;101873.44;31477773;28;20047;-75
2022/03/16 17:06:21;;;;;;;7.13;3.53;;;;;;;-1.07;55.34;101882.25;31466750;28;20066;-79
2022/03/16 17:21:24;;;;;;;7.23;4.37;;;;;;;-1.28;55.04;101894.38;31474230;28;20048;-84
2022/03/16 17:36:26;;;;;;;8.10;3.93;;;;;;;-1.42;56.47;101904.25;31471667;28;20122;-76
2022/03/16 17:51:29;;;;;;;6.83;4.27;;;;;;;-1.48;56.90;101905.41;31470103;28;20067;-76
2022/03/16 18:06:31;;;;;;;12.23;5.00;;;;;;;-1.78;58.34;101907.47;31467255;28;20064;-76
2022/03/16 18:21:34;;;;;;;11.43;5.50;;;;;;;-1.84;58.75;101903.31;31530861;28;20056;-79
2022/03/16 18:36:36;;;;;;;11.83;5.47;;;;;;;-2.00;60.06;101915.28;31506902;28;20090;-77
2022/03/16 19:07:00;;;;;;;9.77;5.67;;;;;;;-2.37;62.42;101902.00;31489853;28;20059;-76
2022/03/16 19:22:09;;;;;;;4.77;3.27;;;;;;;-2.64;62.09;101908.72;31498893;28;20107;-77
2022/03/16 19:37:14;;;;;;;7.07;4.80;;;;;;;-2.73;61.31;101913.09;31492600;28;20091;-77
2022/03/16 19:52:16;;;;;;;7.97;5.17;;;;;;;-2.99;61.18;101914.47;31478927;28;20049;-76
2022/03/16 20:07:21;;;;;;;7.47;4.50;;;;;;;-3.26;60.16;101918.44;31480947;28;20056;-77
2022/03/16 20:22:24;;;;;;;8.10;4.43;;;;;;;-3.40;59.65;101935.34;31482227;28;20045;-77
2022/03/16 20:37:27;;;;;;;8.13;5.00;;;;;;;-3.58;58.92;101923.56;31489673;28;20455;-76
2022/03/16 20:52:31;;;;;;;4.87;4.00;;;;;;;-3.77;58.25;101934.81;31478066;28;20109;-77
2022/03/16 21:07:34;;;;;;;8.43;4.83;;;;;;;-3.77;57.78;101932.16;31479466;28;20052;-76
2022/03/16 21:22:42;;;;;;;9.50;5.17;;;;;;;-3.73;57.37;101937.72;31488911;28;20102;-76
2022/03/16 21:37:44;;;;;;;8.03;4.60;;;;;;;-3.74;58.16;101945.97;31478555;28;20412;-78
2022/03/16 21:52:46;;;;;;;7.93;4.07;;;;;;;-3.94;58.98;101953.00;31471905;28;20056;-76
2022/03/16 22:07:49;;;;;;;9.20;4.53;;;;;;;-3.87;60.66;101958.00;31483579;28;20052;-76
2022/03/16 22:22:51;;;;;;;8.73;4.63;;;;;;;-3.92;60.14;101956.19;31487455;28;20052;-77
2022/03/16 22:37:53;;;;;;;12.60;6.60;;;;;;;-4.07;61.99;101955.50;31471263;28;20109;-79
2022/03/16 22:52:55;;;;;;;7.03;4.57;;;;;;;-4.22;61.69;101956.34;31498173;28;20052;-78
2022/03/16 23:07:58;;;;;;;10.13;5.70;;;;;;;-4.38;63.30;101958.31;31493862;28;20090;-77
2022/03/16 23:23:02;;;;;;;7.07;4.30;;;;;;;-4.63;63.69;101938.00;31503009;28;20154;-78
2022/03/16 23:38:05;;;;;;;4.40;3.00;;;;;;;-4.84;64.11;101941.78;31502809;28;20127;-76
2022/03/16 23:53:07;;;;;;;6.10;4.30;;;;;;;-4.89;64.56;101936.50;31511273;28;20052;-77
